createdAt,value
2018-08-31T00:00:09.912Z,0.00
2018-08-31T00:01:10.151Z,0.00
2018-08-31T00:02:10.389Z,0.00
2018-08-31T00:03:10.630Z,0.00
2018-08-31T00:04:10.869Z,0.00
2018-08-31T00:05:11.109Z,0.00
2018-08-31T00:06:11.350Z,0.00
2018-08-31T00:07:11.591Z,0.00
2018-08-31T00:08:11.829Z,0.00
2018-08-31T00:09:12.067Z,0.00
2018-08-31T00:10:12.309Z,0.00
2018-08-31T00:11:12.548Z,0.00
2018-08-31T00:12:12.786Z,0.00
2018-08-31T00:13:13.025Z,0.00
2018-08-31T00:14:13.266Z,0.00
2018-08-31T00:15:13.507Z,0.00
2018-08-31T00:16:13.743Z,0.00
2018-08-31T00:17:13.983Z,0.00
2018-08-31T00:18:14.231Z,0.00
2018-08-31T00:19:14.455Z,0.00
2018-08-31T00:20:14.693Z,0.00
2018-08-31T00:21:14.933Z,0.00
2018-08-31T00:22:15.172Z,0.00
2018-08-31T00:23:15.414Z,0.00
2018-08-31T00:24:15.654Z,0.00
2018-08-31T00:25:15.895Z,0.00
2018-08-31T00:26:16.131Z,0.00
2018-08-31T00:27:16.375Z,0.00
2018-08-31T00:28:16.613Z,0.00
2018-08-31T00:29:16.857Z,0.00
2018-08-31T00:30:17.110Z,0.00
2018-08-31T00:31:17.331Z,0.00
2018-08-31T00:32:17.578Z,0.00
2018-08-31T00:33:17.810Z,0.00
2018-08-31T00:34:18.048Z,0.00
2018-08-31T00:35:18.289Z,0.00
2018-08-31T00:36:18.552Z,0.00
2018-08-31T00:37:18.765Z,0.00
2018-08-31T00:38:19.011Z,0.00
2018-08-31T00:39:19.247Z,0.00
2018-08-31T00:40:19.486Z,0.00
2018-08-31T00:41:19.730Z,0.00
2018-08-31T00:42:19.966Z,0.00
2018-08-31T00:43:20.209Z,0.00
2018-08-31T00:44:20.445Z,0.00
2018-08-31T00:45:20.685Z,0.00
2018-08-31T00:46:20.924Z,0.00
2018-08-31T00:47:21.161Z,0.00
2018-08-31T00:48:21.400Z,0.00
2018-08-31T00:49:21.643Z,0.00
2018-08-31T00:50:21.884Z,0.00
2018-08-31T00:51:22.122Z,0.00
2018-08-31T00:52:22.362Z,0.00
2018-08-31T00:53:22.602Z,0.00
2018-08-31T00:54:22.842Z,0.00
2018-08-31T00:55:23.080Z,0.00
2018-08-31T00:56:23.321Z,0.00
2018-08-31T00:57:23.564Z,0.00
2018-08-31T00:58:32.427Z,0.00
2018-08-31T00:59:24.187Z,0.00
2018-08-31T01:00:24.426Z,0.00
2018-08-31T01:01:24.676Z,0.00
2018-08-31T01:02:24.907Z,0.00
2018-08-31T01:03:25.146Z,0.00
2018-08-31T01:04:25.392Z,0.00
2018-08-31T01:05:25.624Z,0.00
2018-08-31T01:06:25.859Z,0.00
2018-08-31T01:07:26.100Z,0.00
2018-08-31T01:08:26.340Z,0.00
2018-08-31T01:09:26.581Z,0.00
2018-08-31T01:10:26.815Z,0.00
2018-08-31T01:11:27.062Z,0.00
2018-08-31T01:12:27.302Z,0.00
2018-08-31T01:13:27.543Z,0.00
2018-08-31T01:14:27.779Z,0.00
2018-08-31T01:15:28.019Z,0.00
2018-08-31T01:16:28.257Z,0.00
2018-08-31T01:17:28.497Z,0.00
2018-08-31T01:18:28.734Z,0.00
2018-08-31T01:19:28.974Z,0.00
2018-08-31T01:20:29.214Z,0.00
2018-08-31T01:21:29.450Z,0.00
2018-08-31T01:22:29.692Z,0.00
2018-08-31T01:23:29.932Z,0.00
2018-08-31T01:24:30.177Z,0.00
2018-08-31T01:25:30.410Z,0.00
2018-08-31T01:26:30.651Z,0.00
2018-08-31T01:27:30.894Z,0.00
2018-08-31T01:28:31.132Z,0.00
2018-08-31T01:29:31.370Z,0.00
2018-08-31T01:30:31.611Z,0.00
2018-08-31T01:31:31.851Z,0.00
2018-08-31T01:32:32.096Z,0.00
2018-08-31T01:33:32.333Z,0.00
2018-08-31T01:34:32.580Z,0.00
2018-08-31T01:35:32.808Z,0.00
2018-08-31T01:36:33.047Z,0.00
2018-08-31T01:37:33.283Z,0.00
2018-08-31T01:38:33.523Z,0.00
2018-08-31T01:39:33.761Z,0.00
2018-08-31T01:40:34.000Z,0.00
2018-08-31T01:41:41.855Z,0.00
2018-08-31T01:42:34.527Z,0.00
2018-08-31T01:43:34.768Z,0.00
2018-08-31T01:44:35.006Z,0.00
2018-08-31T01:45:35.244Z,0.00
2018-08-31T01:46:35.486Z,0.00
2018-08-31T01:47:35.724Z,0.00
2018-08-31T01:48:35.970Z,0.00
2018-08-31T01:49:36.202Z,0.00
2018-08-31T01:50:36.442Z,0.00
2018-08-31T01:51:36.683Z,0.00
2018-08-31T01:52:36.932Z,0.00
2018-08-31T01:53:37.161Z,0.00
2018-08-31T01:54:37.399Z,0.00
2018-08-31T01:55:37.639Z,0.00
2018-08-31T01:56:37.877Z,0.00
2018-08-31T01:57:38.116Z,0.00
2018-08-31T01:58:38.354Z,0.00
2018-08-31T01:59:38.601Z,0.00
2018-08-31T02:00:38.835Z,0.00
2018-08-31T02:01:39.073Z,0.00
2018-08-31T02:02:39.312Z,0.00
2018-08-31T02:03:39.554Z,0.00
2018-08-31T02:04:39.794Z,0.00
2018-08-31T02:05:40.031Z,0.00
2018-08-31T02:06:40.271Z,0.00
2018-08-31T02:07:40.512Z,0.00
2018-08-31T02:08:40.751Z,0.00
2018-08-31T02:09:40.994Z,0.00
2018-08-31T02:10:41.232Z,0.00
2018-08-31T02:11:41.472Z,0.00
2018-08-31T02:12:41.713Z,0.00
2018-08-31T02:13:41.958Z,0.00
2018-08-31T02:14:42.200Z,0.00
2018-08-31T02:15:42.439Z,0.00
2018-08-31T02:16:42.679Z,0.00
2018-08-31T02:17:42.918Z,0.00
2018-08-31T02:18:43.156Z,0.00
2018-08-31T02:19:43.396Z,0.00
2018-08-31T02:20:43.633Z,0.00
2018-08-31T02:21:43.875Z,0.00
2018-08-31T02:22:44.119Z,0.00
2018-08-31T02:23:44.356Z,0.00
2018-08-31T02:24:44.594Z,0.00
2018-08-31T02:25:44.833Z,0.00
2018-08-31T02:26:45.072Z,0.00
2018-08-31T02:27:45.314Z,0.00
2018-08-31T02:28:45.551Z,0.00
2018-08-31T02:29:45.791Z,0.00
2018-08-31T02:30:46.031Z,0.00
2018-08-31T02:31:46.272Z,0.00
2018-08-31T02:32:46.508Z,0.00
2018-08-31T02:33:46.751Z,0.00
2018-08-31T02:34:46.988Z,0.00
2018-08-31T02:35:47.229Z,0.00
2018-08-31T02:36:47.474Z,0.00
2018-08-31T02:37:47.704Z,0.00
2018-08-31T02:38:47.942Z,0.00
2018-08-31T02:39:48.183Z,0.00
2018-08-31T02:40:48.420Z,0.00
2018-08-31T02:41:48.659Z,0.00
2018-08-31T02:42:48.897Z,0.00
2018-08-31T02:43:49.137Z,0.00
2018-08-31T02:44:49.378Z,0.00
2018-08-31T02:45:49.618Z,0.00
2018-08-31T02:46:49.856Z,0.00
2018-08-31T02:47:50.109Z,0.00
2018-08-31T02:48:50.348Z,0.00
2018-08-31T02:49:50.576Z,0.00
2018-08-31T02:50:50.813Z,0.00
2018-08-31T02:51:51.051Z,0.00
2018-08-31T02:52:51.290Z,0.00
2018-08-31T02:53:51.525Z,0.00
2018-08-31T02:54:59.402Z,0.00
2018-08-31T02:55:52.072Z,0.00
2018-08-31T02:56:52.311Z,0.00
2018-08-31T02:57:52.550Z,0.00
2018-08-31T02:58:52.789Z,0.00
2018-08-31T02:59:53.033Z,0.00
2018-08-31T03:00:53.266Z,0.00
2018-08-31T03:01:53.511Z,0.00
2018-08-31T03:02:53.758Z,0.00
2018-08-31T03:03:53.995Z,0.00
2018-08-31T03:04:54.235Z,0.00
2018-08-31T03:05:54.476Z,0.00
2018-08-31T03:06:54.717Z,0.00
2018-08-31T03:07:54.960Z,0.00
2018-08-31T03:08:55.200Z,0.00
2018-08-31T03:09:55.440Z,0.00
2018-08-31T03:10:55.682Z,0.00
2018-08-31T03:11:55.924Z,0.00
2018-08-31T03:12:56.161Z,0.00
2018-08-31T03:13:56.401Z,0.00
2018-08-31T03:14:56.641Z,0.00
2018-08-31T03:15:56.899Z,0.00
2018-08-31T03:16:57.128Z,0.00
2018-08-31T03:17:57.360Z,0.00
2018-08-31T03:18:57.604Z,0.00
2018-08-31T03:19:57.839Z,0.00
2018-08-31T03:20:58.078Z,0.00
2018-08-31T03:21:58.320Z,0.00
2018-08-31T03:22:58.558Z,0.00
2018-08-31T03:23:58.796Z,0.00
2018-08-31T03:24:59.035Z,0.00
2018-08-31T03:25:59.280Z,0.00
2018-08-31T03:26:59.517Z,0.00
2018-08-31T03:27:59.756Z,0.00
2018-08-31T03:28:59.995Z,0.00
2018-08-31T03:30:00.232Z,0.00
2018-08-31T03:31:00.473Z,0.00
2018-08-31T03:32:00.712Z,0.00
2018-08-31T03:33:00.951Z,0.00
2018-08-31T03:34:01.177Z,0.00
2018-08-31T03:35:01.419Z,0.00
2018-08-31T03:36:01.660Z,0.00
2018-08-31T03:37:01.940Z,0.00
2018-08-31T03:38:02.142Z,0.00
2018-08-31T03:39:02.384Z,0.00
2018-08-31T03:40:02.625Z,0.00
2018-08-31T03:41:02.861Z,0.00
2018-08-31T03:42:03.105Z,0.00
2018-08-31T03:43:03.347Z,0.00
2018-08-31T03:44:03.586Z,0.00
2018-08-31T03:45:03.829Z,0.00
2018-08-31T03:46:04.064Z,0.00
2018-08-31T03:47:04.304Z,0.00
2018-08-31T03:48:04.544Z,0.00
2018-08-31T03:49:04.785Z,0.00
2018-08-31T03:50:13.670Z,0.00
2018-08-31T03:51:05.422Z,0.00
2018-08-31T03:52:05.660Z,0.00
2018-08-31T03:53:05.898Z,0.00
2018-08-31T03:54:06.138Z,0.00
2018-08-31T03:55:06.378Z,0.00
2018-08-31T03:56:06.617Z,0.00
2018-08-31T03:57:06.858Z,0.00
2018-08-31T03:58:07.097Z,0.00
2018-08-31T03:59:07.335Z,0.00
2018-08-31T04:00:07.594Z,0.00
2018-08-31T04:01:07.865Z,0.00
2018-08-31T04:02:08.055Z,0.00
2018-08-31T04:03:08.295Z,0.00
2018-08-31T04:04:08.535Z,0.00
2018-08-31T04:05:08.773Z,0.00
2018-08-31T04:06:09.014Z,0.00
2018-08-31T04:07:09.254Z,0.00
2018-08-31T04:08:09.494Z,0.00
2018-08-31T04:09:09.732Z,0.00
2018-08-31T04:10:09.973Z,0.00
2018-08-31T04:11:10.213Z,0.00
2018-08-31T04:12:10.455Z,0.00
2018-08-31T04:13:10.696Z,0.00
2018-08-31T04:14:10.935Z,0.00
2018-08-31T04:15:11.249Z,0.00
2018-08-31T04:16:11.416Z,0.00
2018-08-31T04:17:11.655Z,0.00
2018-08-31T04:18:11.895Z,0.00
2018-08-31T04:19:12.135Z,0.00
2018-08-31T04:20:12.379Z,0.00
2018-08-31T04:21:12.619Z,0.00
2018-08-31T04:22:12.859Z,0.00
2018-08-31T04:23:13.099Z,0.00
2018-08-31T04:24:13.339Z,0.00
2018-08-31T04:25:13.580Z,0.00
2018-08-31T04:26:13.820Z,0.00
2018-08-31T04:27:14.061Z,0.00
2018-08-31T04:28:14.298Z,0.00
2018-08-31T04:29:14.539Z,0.00
2018-08-31T04:30:14.778Z,5.63
2018-08-31T04:31:15.012Z,5.63
2018-08-31T04:32:15.269Z,5.63
2018-08-31T04:33:15.509Z,5.63
2018-08-31T04:34:15.801Z,5.63
2018-08-31T04:35:15.990Z,5.63
2018-08-31T04:36:16.230Z,5.63
2018-08-31T04:37:16.473Z,5.63
2018-08-31T04:38:16.712Z,5.63
2018-08-31T04:39:16.950Z,5.63
2018-08-31T04:40:17.188Z,5.63
2018-08-31T04:41:17.428Z,5.63
2018-08-31T04:42:17.669Z,11.25
2018-08-31T04:43:17.907Z,11.25
2018-08-31T04:44:18.147Z,11.25
2018-08-31T04:45:18.384Z,11.25
2018-08-31T04:46:18.625Z,11.25
2018-08-31T04:47:18.889Z,11.25
2018-08-31T04:48:19.107Z,11.25
2018-08-31T04:49:19.345Z,11.25
2018-08-31T04:50:19.644Z,11.25
2018-08-31T04:51:19.837Z,16.88
2018-08-31T04:52:20.070Z,16.88
2018-08-31T04:53:20.307Z,16.88
2018-08-31T04:54:20.551Z,16.88
2018-08-31T04:55:20.788Z,16.88
2018-08-31T04:56:21.044Z,22.50
2018-08-31T04:57:21.270Z,22.50
2018-08-31T04:58:21.508Z,22.50
2018-08-31T04:59:21.748Z,22.50
2018-08-31T05:00:21.988Z,28.13
2018-08-31T05:01:22.229Z,28.13
2018-08-31T05:02:22.470Z,28.13
2018-08-31T05:03:22.717Z,33.75
2018-08-31T05:04:22.955Z,33.75
2018-08-31T05:05:23.198Z,33.75
2018-08-31T05:06:23.436Z,39.38
2018-08-31T05:07:23.674Z,39.38
2018-08-31T05:08:23.917Z,45.00
2018-08-31T05:09:24.157Z,45.00
2018-08-31T05:10:24.412Z,50.63
2018-08-31T05:11:24.633Z,50.63
2018-08-31T05:12:24.874Z,56.25
2018-08-31T05:13:25.122Z,61.88
2018-08-31T05:14:25.355Z,61.88
2018-08-31T05:15:25.602Z,67.50
2018-08-31T05:16:25.841Z,73.13
2018-08-31T05:17:26.079Z,73.13
2018-08-31T05:18:26.309Z,78.75
2018-08-31T05:19:26.556Z,78.75
2018-08-31T05:20:26.803Z,84.38
2018-08-31T05:21:27.031Z,90.00
2018-08-31T05:22:27.283Z,95.63
2018-08-31T05:23:27.519Z,101.25
2018-08-31T05:24:27.754Z,106.88
2018-08-31T05:25:27.996Z,112.50
2018-08-31T05:26:28.219Z,112.50
2018-08-31T05:27:28.455Z,118.13
2018-08-31T05:28:28.764Z,118.13
2018-08-31T05:29:28.944Z,123.75
2018-08-31T05:30:29.184Z,123.75
2018-08-31T05:31:29.420Z,123.75
2018-08-31T05:32:29.675Z,129.38
2018-08-31T05:33:29.915Z,129.38
2018-08-31T05:34:30.155Z,129.38
2018-08-31T05:35:30.388Z,129.38
2018-08-31T05:36:30.629Z,129.38
2018-08-31T05:37:30.870Z,129.38
2018-08-31T05:38:31.122Z,123.75
2018-08-31T05:39:31.361Z,123.75
2018-08-31T05:40:31.601Z,123.75
2018-08-31T05:41:31.843Z,118.13
2018-08-31T05:42:32.080Z,118.13
2018-08-31T05:43:32.317Z,112.50
2018-08-31T05:44:32.552Z,112.50
2018-08-31T05:45:32.818Z,112.50
2018-08-31T05:46:33.031Z,112.50
2018-08-31T05:47:33.273Z,112.50
2018-08-31T05:48:33.512Z,112.50
2018-08-31T05:49:33.753Z,118.13
2018-08-31T05:50:33.998Z,118.13
2018-08-31T05:51:34.230Z,123.75
2018-08-31T05:52:34.475Z,123.75
2018-08-31T05:53:34.758Z,123.75
2018-08-31T05:54:34.964Z,129.38
2018-08-31T05:55:35.191Z,129.38
2018-08-31T05:56:35.434Z,129.38
2018-08-31T05:57:35.674Z,135.00
2018-08-31T05:58:35.912Z,135.00
2018-08-31T05:59:36.152Z,135.00
2018-08-31T06:00:36.396Z,140.63
2018-08-31T06:01:36.657Z,140.63
2018-08-31T06:02:36.862Z,140.63
2018-08-31T06:03:37.104Z,146.25
2018-08-31T06:04:37.348Z,151.88
2018-08-31T06:05:37.591Z,157.50
2018-08-31T06:06:37.831Z,163.13
2018-08-31T06:07:38.073Z,168.75
2018-08-31T06:08:38.314Z,174.38
2018-08-31T06:09:38.581Z,180.00
2018-08-31T06:10:38.776Z,185.63
2018-08-31T06:11:39.017Z,191.25
2018-08-31T06:12:39.268Z,191.25
2018-08-31T06:13:39.512Z,196.88
2018-08-31T06:14:39.758Z,196.88
2018-08-31T06:15:40.017Z,196.88
2018-08-31T06:16:40.242Z,196.88
2018-08-31T06:17:40.480Z,202.50
2018-08-31T06:18:40.721Z,196.88
2018-08-31T06:19:40.960Z,196.88
2018-08-31T06:20:41.201Z,196.88
2018-08-31T06:21:41.453Z,196.88
2018-08-31T06:22:41.687Z,196.88
2018-08-31T06:23:41.925Z,196.88
2018-08-31T06:24:42.183Z,196.88
2018-08-31T06:25:42.424Z,196.88
2018-08-31T06:26:42.642Z,202.50
2018-08-31T06:27:42.884Z,202.50
2018-08-31T06:28:43.121Z,208.13
2018-08-31T06:29:43.368Z,213.75
2018-08-31T06:30:43.612Z,219.38
2018-08-31T06:31:43.859Z,225.00
2018-08-31T06:32:44.094Z,230.63
2018-08-31T06:33:44.340Z,230.63
2018-08-31T06:34:44.571Z,236.25
2018-08-31T06:35:44.819Z,241.88
2018-08-31T06:36:45.049Z,241.88
2018-08-31T06:37:45.292Z,241.88
2018-08-31T06:38:45.537Z,247.50
2018-08-31T06:39:45.777Z,253.13
2018-08-31T06:40:46.097Z,258.75
2018-08-31T06:41:46.255Z,264.38
2018-08-31T06:42:46.497Z,270.00
2018-08-31T06:43:46.739Z,281.25
2018-08-31T06:44:46.979Z,286.88
2018-08-31T06:45:47.229Z,298.13
2018-08-31T06:46:47.464Z,309.38
2018-08-31T06:47:47.726Z,320.63
2018-08-31T06:48:47.947Z,326.25
2018-08-31T06:49:48.188Z,331.88
2018-08-31T06:50:56.121Z,343.13
2018-08-31T06:51:48.794Z,348.75
2018-08-31T06:52:49.035Z,348.75
2018-08-31T06:53:49.266Z,354.38
2018-08-31T06:54:49.510Z,360.00
2018-08-31T06:55:49.745Z,348.75
2018-08-31T06:56:49.988Z,348.75
2018-08-31T06:57:50.227Z,343.13
2018-08-31T06:58:50.474Z,343.13
2018-08-31T06:59:50.721Z,343.13
2018-08-31T07:00:50.951Z,348.75
2018-08-31T07:01:51.195Z,360.00
2018-08-31T07:02:51.433Z,365.63
2018-08-31T07:03:51.712Z,371.25
2018-08-31T07:04:51.918Z,376.88
2018-08-31T07:05:52.167Z,388.13
2018-08-31T07:06:52.412Z,393.75
2018-08-31T07:07:52.653Z,399.38
2018-08-31T07:08:52.898Z,416.25
2018-08-31T07:09:53.143Z,438.75
2018-08-31T07:10:53.384Z,450.00
2018-08-31T07:11:53.620Z,461.25
2018-08-31T07:12:53.876Z,478.13
2018-08-31T07:13:54.120Z,495.00
2018-08-31T07:14:54.364Z,506.25
2018-08-31T07:15:54.607Z,579.38
2018-08-31T07:16:54.851Z,753.75
2018-08-31T07:17:55.097Z,765.00
2018-08-31T07:18:55.364Z,770.63
2018-08-31T07:19:55.663Z,804.38
2018-08-31T07:20:55.828Z,877.50
2018-08-31T07:21:56.065Z,916.88
2018-08-31T07:22:56.314Z,933.75
2018-08-31T07:23:56.544Z,950.63
2018-08-31T07:24:56.782Z,956.25
2018-08-31T07:25:57.080Z,978.75
2018-08-31T07:26:57.323Z,984.38
2018-08-31T07:27:57.547Z,1012.50
2018-08-31T07:28:57.781Z,1029.38
2018-08-31T07:29:58.095Z,1035.00
2018-08-31T07:30:58.341Z,1074.38
2018-08-31T07:31:58.721Z,1085.63
2018-08-31T07:32:58.939Z,1040.63
2018-08-31T07:33:59.225Z,1063.13
2018-08-31T07:34:59.488Z,618.75
2018-08-31T07:35:59.732Z,736.88
2018-08-31T07:36:59.990Z,596.25
2018-08-31T07:38:00.230Z,1096.88
2018-08-31T07:39:00.463Z,1096.88
2018-08-31T07:40:00.711Z,1091.25
2018-08-31T07:41:00.957Z,1108.13
2018-08-31T07:42:01.203Z,686.25
2018-08-31T07:43:01.445Z,905.63
2018-08-31T07:44:01.689Z,1125.00
2018-08-31T07:45:01.946Z,1102.50
2018-08-31T07:46:02.210Z,1130.63
2018-08-31T07:47:02.455Z,1125.00
2018-08-31T07:48:02.697Z,928.13
2018-08-31T07:49:02.940Z,900.00
2018-08-31T07:50:03.186Z,1012.50
2018-08-31T07:51:03.443Z,1018.13
2018-08-31T07:52:03.675Z,624.38
2018-08-31T07:53:03.914Z,1035.00
2018-08-31T07:54:04.160Z,1209.38
2018-08-31T07:55:04.405Z,1209.38
2018-08-31T07:56:04.653Z,675.00
2018-08-31T07:57:04.898Z,579.38
2018-08-31T07:58:05.146Z,568.13
2018-08-31T07:59:05.392Z,573.75
2018-08-31T08:00:05.639Z,579.38
2018-08-31T08:01:05.885Z,579.38
2018-08-31T08:02:06.132Z,596.25
2018-08-31T08:03:06.371Z,618.75
2018-08-31T08:04:06.617Z,646.88
2018-08-31T08:05:14.506Z,669.38
2018-08-31T08:06:07.183Z,669.38
2018-08-31T08:07:07.428Z,635.63
2018-08-31T08:08:07.675Z,630.00
2018-08-31T08:09:07.923Z,624.38
2018-08-31T08:10:08.170Z,675.00
2018-08-31T08:11:08.418Z,725.63
2018-08-31T08:12:08.665Z,742.50
2018-08-31T08:13:08.914Z,781.88
2018-08-31T08:14:09.160Z,793.13
2018-08-31T08:15:09.406Z,793.13
2018-08-31T08:16:09.661Z,798.75
2018-08-31T08:17:09.898Z,826.88
2018-08-31T08:18:10.134Z,855.00
2018-08-31T08:19:10.386Z,883.13
2018-08-31T08:20:10.637Z,945.00
2018-08-31T08:21:10.887Z,967.50
2018-08-31T08:22:11.136Z,939.38
2018-08-31T08:23:11.383Z,911.25
2018-08-31T08:24:11.631Z,849.38
2018-08-31T08:25:11.874Z,860.63
2018-08-31T08:26:12.121Z,877.50
2018-08-31T08:27:12.377Z,939.38
2018-08-31T08:28:12.621Z,945.00
2018-08-31T08:29:12.861Z,1074.38
2018-08-31T08:30:13.109Z,950.63
2018-08-31T08:31:13.352Z,888.75
2018-08-31T08:32:13.597Z,922.50
2018-08-31T08:33:13.861Z,1023.75
2018-08-31T08:34:14.084Z,1035.00
2018-08-31T08:35:14.332Z,1091.25
2018-08-31T08:36:14.583Z,1136.25
2018-08-31T08:37:14.814Z,1057.50
2018-08-31T08:38:15.055Z,1023.75
2018-08-31T08:39:15.301Z,933.75
2018-08-31T08:40:15.556Z,877.50
2018-08-31T08:41:15.788Z,832.50
2018-08-31T08:42:16.077Z,810.00
2018-08-31T08:43:16.271Z,871.88
2018-08-31T08:44:16.512Z,843.75
2018-08-31T08:45:16.764Z,776.25
2018-08-31T08:46:17.001Z,748.13
2018-08-31T08:47:17.251Z,691.88
2018-08-31T08:48:17.521Z,675.00
2018-08-31T08:49:25.381Z,635.63
2018-08-31T08:50:18.061Z,601.88
2018-08-31T08:51:18.311Z,607.50
2018-08-31T08:52:18.556Z,596.25
2018-08-31T08:53:18.812Z,585.00
2018-08-31T08:54:19.069Z,579.38
2018-08-31T08:55:19.292Z,579.38
2018-08-31T08:56:19.540Z,585.00
2018-08-31T08:57:19.789Z,590.63
2018-08-31T08:58:20.069Z,596.25
2018-08-31T08:59:20.281Z,601.88
2018-08-31T09:00:20.528Z,601.88
2018-08-31T09:01:20.787Z,613.13
2018-08-31T09:02:21.009Z,635.63
2018-08-31T09:03:21.255Z,675.00
2018-08-31T09:04:21.504Z,742.50
2018-08-31T09:05:21.750Z,675.00
2018-08-31T09:06:21.998Z,675.00
2018-08-31T09:07:22.245Z,736.88
2018-08-31T09:08:22.493Z,900.00
2018-08-31T09:09:22.739Z,956.25
2018-08-31T09:10:22.990Z,1108.13
2018-08-31T09:11:23.235Z,1153.13
2018-08-31T09:12:23.515Z,1198.13
2018-08-31T09:13:23.733Z,1102.50
2018-08-31T09:14:23.981Z,1125.00
2018-08-31T09:15:24.231Z,1018.13
2018-08-31T09:16:24.477Z,838.13
2018-08-31T09:17:24.732Z,832.50
2018-08-31T09:18:25.020Z,877.50
2018-08-31T09:19:25.223Z,1035.00
2018-08-31T09:20:25.468Z,1203.75
2018-08-31T09:21:25.719Z,1310.63
2018-08-31T09:22:25.966Z,1361.25
2018-08-31T09:23:26.203Z,1383.75
2018-08-31T09:24:26.464Z,1395.00
2018-08-31T09:25:26.700Z,1366.88
2018-08-31T09:26:26.945Z,1344.38
2018-08-31T09:27:27.199Z,1305.00
2018-08-31T09:28:27.447Z,1265.63
2018-08-31T09:29:27.698Z,1186.88
2018-08-31T09:30:27.946Z,1119.38
2018-08-31T09:31:28.195Z,1113.75
2018-08-31T09:32:28.475Z,1057.50
2018-08-31T09:33:28.695Z,1051.88
2018-08-31T09:34:28.949Z,1102.50
2018-08-31T09:35:29.201Z,1141.88
2018-08-31T09:36:29.452Z,1147.50
2018-08-31T09:37:29.700Z,1192.50
2018-08-31T09:38:30.005Z,1203.75
2018-08-31T09:39:30.204Z,1119.38
2018-08-31T09:40:30.451Z,1158.75
2018-08-31T09:41:30.701Z,1170.00
2018-08-31T09:42:30.952Z,1147.50
2018-08-31T09:43:31.204Z,1231.88
2018-08-31T09:44:31.454Z,1293.75
2018-08-31T09:45:31.705Z,1355.63
2018-08-31T09:46:31.957Z,1350.00
2018-08-31T09:47:32.211Z,1147.50
2018-08-31T09:48:32.510Z,1108.13
2018-08-31T09:49:32.752Z,1108.13
2018-08-31T09:50:32.959Z,950.63
2018-08-31T09:51:33.210Z,855.00
2018-08-31T09:52:33.464Z,793.13
2018-08-31T09:53:33.717Z,753.75
2018-08-31T09:54:33.969Z,725.63
2018-08-31T09:55:34.221Z,748.13
2018-08-31T09:56:34.476Z,781.88
2018-08-31T09:57:34.830Z,826.88
2018-08-31T09:58:34.972Z,888.75
2018-08-31T09:59:35.231Z,1046.25
2018-08-31T10:00:35.479Z,1147.50
2018-08-31T10:01:35.734Z,1119.38
2018-08-31T10:02:35.984Z,1063.13
2018-08-31T10:03:36.231Z,1215.00
2018-08-31T10:04:36.476Z,1231.88
2018-08-31T10:05:36.740Z,1338.75
2018-08-31T10:06:36.992Z,1265.63
2018-08-31T10:07:37.242Z,1327.50
2018-08-31T10:08:37.493Z,1676.25
2018-08-31T10:09:37.748Z,1732.50
2018-08-31T10:10:38.024Z,1805.63
2018-08-31T10:11:38.249Z,1811.25
2018-08-31T10:12:38.499Z,1788.75
2018-08-31T10:13:38.752Z,1591.88
2018-08-31T10:14:39.006Z,1395.00
2018-08-31T10:15:39.259Z,1496.25
2018-08-31T10:16:47.141Z,1383.75
2018-08-31T10:17:39.828Z,1203.75
2018-08-31T10:18:40.086Z,1310.63
2018-08-31T10:19:40.330Z,1333.13
2018-08-31T10:20:40.585Z,1153.13
2018-08-31T10:21:40.835Z,1046.25
2018-08-31T10:22:41.089Z,1113.75
2018-08-31T10:23:41.340Z,1181.25
2018-08-31T10:24:41.592Z,1231.88
2018-08-31T10:25:41.846Z,1153.13
2018-08-31T10:26:42.096Z,1501.88
2018-08-31T10:27:42.350Z,1530.00
2018-08-31T10:28:42.604Z,1350.00
2018-08-31T10:29:42.856Z,1479.38
2018-08-31T10:30:43.107Z,1260.00
2018-08-31T10:31:43.385Z,1271.25
2018-08-31T10:32:43.636Z,1310.63
2018-08-31T10:33:43.888Z,1901.25
2018-08-31T10:34:44.143Z,1811.25
2018-08-31T10:35:44.403Z,1715.63
2018-08-31T10:36:44.650Z,1839.38
2018-08-31T10:37:44.902Z,1771.88
2018-08-31T10:38:45.153Z,1845.00
2018-08-31T10:39:45.411Z,1833.75
2018-08-31T10:40:45.665Z,1923.75
2018-08-31T10:41:45.919Z,1614.38
2018-08-31T10:42:46.174Z,1355.63
2018-08-31T10:43:46.428Z,1203.75
2018-08-31T10:44:46.682Z,1164.38
2018-08-31T10:45:46.936Z,1271.25
2018-08-31T10:46:47.194Z,1850.63
2018-08-31T10:47:47.448Z,1867.50
2018-08-31T10:48:55.329Z,1231.88
2018-08-31T10:49:48.012Z,1141.88
2018-08-31T10:50:48.267Z,1108.13
2018-08-31T10:51:48.524Z,1096.88
2018-08-31T10:52:48.777Z,1074.38
2018-08-31T10:53:49.031Z,1057.50
2018-08-31T10:54:49.286Z,1040.63
2018-08-31T10:55:49.539Z,1035.00
2018-08-31T10:56:49.794Z,1018.13
2018-08-31T10:57:50.047Z,1023.75
2018-08-31T10:58:50.307Z,1063.13
2018-08-31T10:59:50.554Z,1119.38
2018-08-31T11:00:50.806Z,1153.13
2018-08-31T11:01:51.061Z,1828.13
2018-08-31T11:02:51.311Z,2497.50
2018-08-31T11:03:51.566Z,1912.50
2018-08-31T11:04:51.821Z,2908.13
2018-08-31T11:05:52.073Z,2863.13
2018-08-31T11:06:52.327Z,2733.75
2018-08-31T11:07:52.581Z,1310.63
2018-08-31T11:08:52.833Z,1001.25
2018-08-31T11:09:53.088Z,1006.88
2018-08-31T11:10:53.341Z,1096.88
2018-08-31T11:11:53.596Z,3183.75
2018-08-31T11:12:53.866Z,2227.50
2018-08-31T11:13:54.095Z,2666.25
2018-08-31T11:14:54.486Z,2840.63
2018-08-31T11:15:54.657Z,3600.00
2018-08-31T11:16:54.905Z,3386.25
2018-08-31T11:17:55.156Z,3555.00
2018-08-31T11:18:55.482Z,3448.13
2018-08-31T11:19:55.781Z,3397.50
2018-08-31T11:20:56.040Z,1096.88
2018-08-31T11:21:56.292Z,1051.88
2018-08-31T11:22:56.546Z,1068.75
2018-08-31T11:23:56.798Z,1040.63
2018-08-31T11:24:57.051Z,1074.38
2018-08-31T11:25:57.305Z,1080.00
2018-08-31T11:26:57.560Z,1074.38
2018-08-31T11:27:57.885Z,1080.00
2018-08-31T11:28:58.065Z,1108.13
2018-08-31T11:29:58.319Z,1113.75
2018-08-31T11:30:58.571Z,1096.88
2018-08-31T11:31:58.822Z,1035.00
2018-08-31T11:32:59.126Z,990.00
2018-08-31T11:33:59.380Z,900.00
2018-08-31T11:34:59.633Z,838.13
2018-08-31T11:35:59.880Z,821.25
2018-08-31T11:37:00.187Z,866.25
2018-08-31T11:38:00.430Z,995.63
2018-08-31T11:39:00.682Z,1299.38
2018-08-31T11:40:00.937Z,2441.25
2018-08-31T11:41:01.187Z,4016.25
2018-08-31T11:42:01.439Z,2188.13
2018-08-31T11:43:01.695Z,2486.25
2018-08-31T11:44:01.959Z,2452.50
2018-08-31T11:45:02.216Z,1479.38
2018-08-31T11:46:02.470Z,3043.13
2018-08-31T11:47:02.721Z,1940.63
2018-08-31T11:48:02.989Z,3352.50
2018-08-31T11:49:03.278Z,3768.75
2018-08-31T11:50:03.471Z,3768.75
2018-08-31T11:51:03.724Z,3819.38
2018-08-31T11:52:03.977Z,3864.38
2018-08-31T11:53:04.233Z,3948.75
2018-08-31T11:54:04.486Z,4005.00
2018-08-31T11:55:04.773Z,4083.75
2018-08-31T11:56:04.989Z,4156.88
2018-08-31T11:57:05.240Z,4173.75
2018-08-31T11:58:05.501Z,4213.13
2018-08-31T11:59:05.758Z,4201.88
2018-08-31T12:00:06.012Z,2868.75
2018-08-31T12:01:06.350Z,4263.75
2018-08-31T12:02:06.667Z,4584.38
2018-08-31T12:03:06.779Z,3588.75
2018-08-31T12:04:07.033Z,2795.63
2018-08-31T12:05:07.286Z,1282.50
2018-08-31T12:06:07.543Z,1113.75
2018-08-31T12:07:07.798Z,1018.13
2018-08-31T12:08:08.085Z,945.00
2018-08-31T12:09:08.420Z,905.63
2018-08-31T12:10:08.675Z,871.88
2018-08-31T12:11:08.929Z,843.75
2018-08-31T12:12:09.190Z,821.25
2018-08-31T12:13:09.444Z,798.75
2018-08-31T12:14:09.697Z,776.25
2018-08-31T12:15:09.952Z,753.75
2018-08-31T12:16:10.204Z,753.75
2018-08-31T12:17:10.455Z,759.38
2018-08-31T12:18:10.710Z,753.75
2018-08-31T12:19:10.960Z,765.00
2018-08-31T12:20:11.212Z,776.25
2018-08-31T12:21:11.468Z,815.63
2018-08-31T12:22:11.741Z,1265.63
2018-08-31T12:23:11.972Z,2688.75
2018-08-31T12:24:12.234Z,3780.00
2018-08-31T12:25:12.482Z,2328.75
2018-08-31T12:26:12.733Z,3639.38
2018-08-31T12:27:12.989Z,1074.38
2018-08-31T12:28:13.238Z,3853.13
2018-08-31T12:29:13.479Z,3819.38
2018-08-31T12:30:13.748Z,3796.88
2018-08-31T12:31:13.996Z,1620.00
2018-08-31T12:32:14.249Z,1170.00
2018-08-31T12:33:14.502Z,2880.00
2018-08-31T12:34:14.755Z,3830.63
2018-08-31T12:35:15.009Z,3926.25
2018-08-31T12:36:15.263Z,2323.13
2018-08-31T12:37:15.522Z,995.63
2018-08-31T12:38:15.775Z,877.50
2018-08-31T12:39:16.059Z,793.13
2018-08-31T12:40:16.277Z,742.50
2018-08-31T12:41:16.532Z,691.88
2018-08-31T12:42:16.784Z,658.13
2018-08-31T12:43:17.039Z,624.38
2018-08-31T12:44:17.369Z,585.00